Time;durP1;ratioP1;P1;durP2;ratioP2;P2;SDS_P1;SDS_P2;PMS_P1;PMS_P2;Temp;Humidity;BMP_temperature;BMP_pressure;BME280_temperature;BME280_humidity;BME280_pressure;Samples;Min_cycle;Max_cycle;Signal;HPM_P1;HPM_P2
2022/01/19 00:02:20;;;;;;;7.22;3.03;;;;;;;2.40;100.00;101215.03;5016921;28;20068;-49
2022/01/19 00:05:23;;;;;;;24.75;4.25;;;;;;;2.39;100.00;101218.94;5017057;28;20068;-49
2022/01/19 00:08:28;;;;;;;4.53;3.40;;;;;;;2.31;100.00;101203.59;5017111;28;20414;-50
2022/01/19 00:11:32;;;;;;;5.55;2.70;;;;;;;2.32;100.00;101199.66;5016288;28;20045;-49
2022/01/19 00:14:35;;;;;;;6.18;3.33;;;;;;;2.28;100.00;101193.38;5016203;28;20065;-49
2022/01/19 00:17:39;;;;;;;6.47;3.13;;;;;;;2.28;100.00;101182.38;4996284;28;20057;-49
2022/01/19 00:20:42;;;;;;;13.30;3.42;;;;;;;2.28;100.00;101182.38;4997040;28;20087;-49
2022/01/19 00:23:46;;;;;;;6.60;3.55;;;;;;;2.24;100.00;101181.56;4985193;28;20057;-49
2022/01/19 00:26:49;;;;;;;5.70;2.47;;;;;;;2.18;100.00;101166.63;5023700;28;20061;-49
2022/01/19 00:29:52;;;;;;;6.78;4.90;;;;;;;2.17;100.00;101171.34;5037045;28;20509;-49
2022/01/19 00:32:56;;;;;;;7.43;3.30;;;;;;;2.16;100.00;101179.97;5036836;28;20040;-49
2022/01/19 00:36:00;;;;;;;10.05;5.30;;;;;;;2.18;100.00;101183.13;5015466;28;20049;-49
2022/01/19 00:39:03;;;;;;;10.07;4.72;;;;;;;2.19;100.00;101184.69;4997314;28;20495;-49
2022/01/19 00:42:07;;;;;;;18.77;4.18;;;;;;;2.18;100.00;101183.13;4999036;28;20069;-48
2022/01/19 00:45:12;;;;;;;3.33;2.42;;;;;;;2.15;100.00;101187.44;5000646;28;20049;-49
2022/01/19 00:48:15;;;;;;;8.27;3.97;;;;;;;2.08;100.00;101190.13;5016591;28;20061;-48
2022/01/19 00:51:19;;;;;;;2.03;1.88;;;;;;;2.15;100.00;101173.69;5016065;28;20057;-49
2022/01/19 00:54:22;;;;;;;4.25;1.73;;;;;;;2.29;100.00;101168.25;5016482;28;20045;-48
2022/01/19 00:57:26;;;;;;;3.40;2.53;;;;;;;2.31;100.00;101148.63;5016099;28;20048;-49
2022/01/19 01:00:29;;;;;;;6.40;3.72;;;;;;;2.28;100.00;101132.91;5016734;28;20057;-49
2022/01/19 01:03:33;;;;;;;6.63;2.55;;;;;;;2.26;100.00;101124.25;5016890;28;20057;-49
2022/01/19 01:06:36;;;;;;;3.25;2.15;;;;;;;2.15;100.00;101117.94;5015743;28;20049;-50
2022/01/19 01:09:39;;;;;;;9.45;3.97;;;;;;;2.17;100.00;101126.56;5015569;28;20056;-49
2022/01/19 01:15:59;;;;;;;10.55;3.92;;;;;;;2.16;100.00;101158.00;5015621;28;20056;-48
2022/01/19 01:19:06;;;;;;;4.20;3.72;;;;;;;2.21;100.00;101160.34;5016017;28;20056;-49
2022/01/19 01:22:09;;;;;;;0.95;0.93;;;;;;;2.29;100.00;101156.47;5016066;28;20072;-49
2022/01/19 01:25:15;;;;;;;2.85;1.90;;;;;;;2.51;100.00;101152.63;5015052;28;20418;-49
2022/01/19 01:28:19;;;;;;;3.58;2.75;;;;;;;2.71;100.00;101153.81;4994888;28;20049;-49
2022/01/19 01:31:22;;;;;;;4.28;3.17;;;;;;;2.94;100.00;101135.00;4994550;28;20057;-49
2022/01/19 01:34:25;;;;;;;8.27;2.88;;;;;;;3.06;100.00;101120.84;4994727;28;20057;-49
2022/01/19 01:37:28;;;;;;;6.07;2.08;;;;;;;3.16;100.00;101101.97;4993346;28;20065;-49
2022/01/19 01:40:34;;;;;;;7.03;3.63;;;;;;;3.25;100.00;101092.09;4994475;28;20053;-49
2022/01/19 01:43:37;;;;;;;5.60;2.13;;;;;;;3.35;100.00;101074.00;4994217;28;20570;-49
2022/01/19 01:46:54;;;;;;;1.65;1.33;;;;;;;3.37;100.00;101057.88;5026157;28;20053;-49
2022/01/19 01:53:47;;;;;;;18.83;4.40;;;;;;;3.41;100.00;101055.91;5033513;28;20049;-49
2022/01/19 01:56:26;;;;;;;10.52;4.25;;;;;;;3.41;100.00;101053.94;5019277;28;20057;-49
2022/01/19 01:59:33;;;;;;;0.90;0.90;;;;;;;3.47;100.00;101076.31;5013351;28;20056;-49
2022/01/19 02:02:38;;;;;;;5.00;2.90;;;;;;;3.52;100.00;101078.69;5013404;28;20053;-49
2022/01/19 02:06:04;;;;;;;6.70;2.65;;;;;;;3.54;100.00;101070.81;5013641;28;20052;-49
2022/01/19 02:09:12;;;;;;;3.03;1.52;;;;;;;3.51;100.00;101057.84;5013349;28;20068;-49
2022/01/19 02:22:30;;;;;;;5.53;1.40;;;;;;;3.46;100.00;101044.47;5013267;28;20065;-49
2022/01/19 02:25:39;;;;;;;5.90;2.28;;;;;;;3.56;100.00;101043.66;5013057;28;20044;-49
2022/01/19 02:42:12;;;;;;;26.27;5.32;;;;;;;3.85;100.00;100981.75;5013010;28;20049;-49
2022/01/19 02:51:44;;;;;;;5.97;2.10;;;;;;;3.85;100.00;100938.44;5013302;28;20053;-50
2022/01/19 02:54:49;;;;;;;10.00;2.63;;;;;;;3.91;100.00;100914.00;5012721;28;20394;-49
2022/01/19 02:57:52;;;;;;;7.28;1.77;;;;;;;3.90;100.00;100917.94;5012844;28;20053;-49
2022/01/19 03:11:03;;;;;;;9.88;2.70;;;;;;;3.63;100.00;100887.44;5012602;28;20060;-50
2022/01/19 03:14:08;;;;;;;3.75;1.52;;;;;;;3.62;100.00;100885.06;5012763;28;20399;-49
2022/01/19 03:17:12;;;;;;;3.60;2.53;;;;;;;3.62;100.00;100885.06;5013011;28;20064;-49
2022/01/19 03:20:16;;;;;;;11.02;2.50;;;;;;;3.58;100.00;100878.78;5012458;28;20402;-49
2022/01/19 03:23:22;;;;;;;8.23;2.10;;;;;;;3.54;100.00;100878.03;5012285;28;20053;-49
2022/01/19 03:26:27;;;;;;;2.63;2.35;;;;;;;3.51;100.00;100884.38;5018658;28;20052;-49
2022/01/19 03:29:30;;;;;;;9.73;3.78;;;;;;;3.48;100.00;100879.66;5031918;28;20056;-49
2022/01/19 03:32:34;;;;;;;2.58;1.25;;;;;;;3.47;100.00;100881.63;5032209;28;20056;-49
2022/01/19 03:35:40;;;;;;;5.18;2.30;;;;;;;3.41;100.00;100871.44;5017128;28;20053;-49
2022/01/19 03:38:44;;;;;;;4.70;0.70;;;;;;;3.33;100.00;100850.63;4993126;28;20053;-49
2022/01/19 03:41:48;;;;;;;5.07;2.72;;;;;;;3.29;100.00;100853.41;5001317;28;20052;-49
2022/01/19 03:44:51;;;;;;;13.18;2.42;;;;;;;3.38;100.00;100847.47;5011960;28;20053;-49
2022/01/19 03:48:08;;;;;;;0.98;0.98;;;;;;;3.40;100.00;100839.59;5012597;28;20521;-49
2022/01/19 03:51:12;;;;;;;2.97;1.60;;;;;;;3.38;100.00;100839.22;5012746;28;20056;-50
2022/01/19 03:54:15;;;;;;;7.63;1.60;;;;;;;3.50;100.00;100845.03;5011872;28;20410;-49
2022/01/19 03:57:20;;;;;;;4.38;1.85;;;;;;;3.53;100.00;100848.94;5012251;28;20060;-49
2022/01/19 04:00:23;;;;;;;1.77;1.50;;;;;;;3.45;100.00;100841.91;5013324;28;20049;-49
2022/01/19 04:06:57;;;;;;;2.70;1.27;;;;;;;3.45;100.00;100836.41;5012010;28;20053;-49
2022/01/19 04:10:01;;;;;;;7.75;2.58;;;;;;;3.43;100.00;100839.56;4995930;28;20494;-49
2022/01/19 04:16:27;;;;;;;;;;;;;;;3.52;100.00;100841.88;5010254;28;20049;-49
2022/01/19 04:22:37;;;;;;;4.43;2.03;;;;;;;3.56;100.00;100823.34;5015363;28;20056;-49
2022/01/19 04:25:41;;;;;;;10.60;2.67;;;;;;;3.56;100.00;100826.09;5015280;28;20065;-49
2022/01/19 04:28:45;;;;;;;4.88;1.58;;;;;;;3.64;100.00;100817.38;5034909;28;20052;-49
2022/01/19 04:31:48;;;;;;;2.78;1.67;;;;;;;3.73;100.00;100814.94;5034960;28;20053;-49
2022/01/19 04:34:52;;;;;;;2.40;1.00;;;;;;;3.83;100.00;100807.81;5031745;28;20057;-49
2022/01/19 04:44:36;;;;;;;9.95;2.63;;;;;;;4.03;100.00;100797.00;4995590;28;20054;-49
2022/01/19 05:05:22;;;;;;;5.55;1.83;;;;;;;4.09;100.00;100760.31;4995105;28;20057;-50
2022/01/19 05:08:10;;;;;;;5.97;1.88;;;;;;;4.16;100.00;100746.44;4994900;28;20053;-49
2022/01/19 05:14:36;;;;;;;4.30;1.95;;;;;;;4.19;100.00;100734.59;4994697;28;20126;-50
2022/01/19 05:17:39;;;;;;;8.82;2.22;;;;;;;4.18;100.00;100718.47;4994740;28;20058;-50
2022/01/19 05:20:45;;;;;;;20.38;2.58;;;;;;;4.14;100.00;100707.47;4994522;28;20049;-50
2022/01/19 05:23:49;;;;;;;1.85;0.80;;;;;;;4.15;100.00;100717.31;4993376;28;20054;-50
2022/01/19 05:26:52;;;;;;;6.40;2.05;;;;;;;4.22;100.00;100708.94;5020837;28;20052;-50
2022/01/19 05:29:56;;;;;;;1.85;1.75;;;;;;;4.37;100.00;100710.38;5033835;28;20487;-50
2022/01/19 05:32:59;;;;;;;3.65;1.48;;;;;;;4.42;100.00;100717.38;5034061;28;20048;-50
2022/01/19 05:36:03;;;;;;;1.30;1.05;;;;;;;4.45;100.00;100700.03;5012135;28;20395;-50
2022/01/19 05:39:06;;;;;;;1.45;1.38;;;;;;;4.49;100.00;100701.53;4994238;28;20053;-50
2022/01/19 05:42:15;;;;;;;1.45;1.35;;;;;;;4.60;100.00;100707.72;4994180;28;20049;-50
2022/01/19 05:45:19;;;;;;;3.38;0.40;;;;;;;4.63;100.00;100711.63;4993966;28;20061;-50
2022/01/19 05:48:24;;;;;;;6.03;0.77;;;;;;;4.70;100.00;100696.94;4994244;28;20407;-50
2022/01/19 05:51:27;;;;;;;1.38;0.88;;;;;;;4.78;100.00;100688.16;4993979;28;20057;-50
2022/01/19 05:54:31;;;;;;;3.60;1.70;;;;;;;4.92;100.00;100692.66;4994258;28;20063;-50
2022/01/19 05:57:35;;;;;;;4.05;0.45;;;;;;;5.00;100.00;100685.88;4993953;28;20053;-50
2022/01/19 06:00:38;;;;;;;5.32;1.77;;;;;;;4.98;100.00;100675.22;4993575;28;20050;-50
2022/01/19 06:03:42;;;;;;;5.07;1.17;;;;;;;5.03;100.00;100673.97;4993983;28;20069;-50
2022/01/19 06:06:45;;;;;;;2.42;0.55;;;;;;;5.20;100.00;100678.44;5010558;28;20053;-50
2022/01/19 06:10:00;;;;;;;6.28;1.55;;;;;;;5.23;100.00;100688.66;5013475;28;20045;-50
2022/01/19 06:13:03;;;;;;;3.28;0.40;;;;;;;5.24;100.00;100684.69;5012937;28;20057;-50
2022/01/19 06:16:07;;;;;;;3.30;0.85;;;;;;;5.21;100.00;100680.78;5013350;28;20053;-50
2022/01/19 06:19:10;;;;;;;1.00;0.77;;;;;;;5.28;100.00;100668.84;5013372;28;20509;-50
2022/01/19 06:22:14;;;;;;;0.85;0.43;;;;;;;5.30;100.00;100658.97;5007879;28;20117;-50
2022/01/19 06:25:17;;;;;;;10.05;1.50;;;;;;;5.38;100.00;100651.31;5004997;28;20074;-55
2022/01/19 06:28:21;;;;;;;0.75;0.65;;;;;;;5.55;100.00;100636.41;5015369;28;20072;-56
2022/01/19 06:31:24;;;;;;;1.38;0.75;;;;;;;5.61;100.00;100637.47;5032565;28;20053;-56
2022/01/19 06:34:28;;;;;;;4.78;0.60;;;;;;;5.61;100.00;100631.94;5032848;28;20057;-56
2022/01/19 06:37:31;;;;;;;1.80;1.23;;;;;;;5.59;100.00;100617.78;4993136;28;20399;-56
2022/01/19 06:40:35;;;;;;;4.82;1.25;;;;;;;5.68;100.00;100620.78;4992739;28;20061;-56
2022/01/19 06:43:39;;;;;;;0.50;0.50;;;;;;;5.79;100.00;100607.53;4993250;28;20065;-56
2022/01/19 06:46:43;;;;;;;1.55;0.90;;;;;;;5.96;100.00;100602.88;5008628;28;20435;-56
2022/01/19 06:49:46;;;;;;;10.80;2.83;;;;;;;6.20;100.00;100606.31;5012788;28;20057;-56
2022/01/19 06:52:50;;;;;;;9.63;2.63;;;;;;;6.33;100.00;100593.41;5013138;28;20057;-56
2022/01/19 06:55:57;;;;;;;2.45;2.20;;;;;;;6.39;100.00;100586.19;5009699;28;20046;-57
2022/01/19 06:59:00;;;;;;;17.17;2.20;;;;;;;6.47;100.00;100588.34;5012928;28;20044;-56
2022/01/19 07:02:04;;;;;;;0.95;0.95;;;;;;;6.50;100.00;100586.69;5012636;28;20053;-56
2022/01/19 07:05:08;;;;;;;3.58;1.40;;;;;;;6.43;100.00;100575.81;5012604;28;20057;-56
2022/01/19 07:08:12;;;;;;;2.40;1.15;;;;;;;6.50;100.00;100586.69;5000320;28;20053;-56
2022/01/19 07:11:15;;;;;;;0.65;0.45;;;;;;;6.61;100.00;100570.63;5007690;28;20514;-56
2022/01/19 07:14:19;;;;;;;1.38;0.68;;;;;;;6.70;100.00;100565.28;5006617;28;20061;-56
2022/01/19 07:17:22;;;;;;;9.63;2.45;;;;;;;6.87;100.00;100561.28;5000557;28;20054;-57
2022/01/19 07:20:26;;;;;;;3.38;1.30;;;;;;;6.95;100.00;100557.16;5002770;28;20041;-56
2022/01/19 07:23:29;;;;;;;3.95;1.00;;;;;;;7.05;100.00;100556.09;5003534;28;20052;-56
2022/01/19 07:26:33;;;;;;;2.38;1.00;;;;;;;7.18;100.00;100547.84;5019222;28;20516;-56
2022/01/19 07:29:36;;;;;;;2.63;1.48;;;;;;;7.31;100.00;100540.38;5031700;28;20125;-57
2022/01/19 07:32:40;;;;;;;4.50;0.77;;;;;;;7.35;100.00;100541.06;5031428;28;20057;-56
2022/01/19 07:35:45;;;;;;;0.90;0.70;;;;;;;7.34;100.00;100551.38;5018965;28;20045;-56
2022/01/19 07:38:48;;;;;;;1.17;0.73;;;;;;;7.44;100.00;100557.84;4996529;28;20053;-56
2022/01/19 07:41:53;;;;;;;2.65;0.73;;;;;;;7.40;100.00;100565.47;4996739;28;20379;-56
2022/01/19 07:44:56;;;;;;;2.88;0.63;;;;;;;7.34;100.00;100562.44;4996161;28;20050;-56
2022/01/19 07:48:00;;;;;;;6.57;1.58;;;;;;;7.24;100.00;100569.06;4996339;28;20469;-57
2022/01/19 07:51:03;;;;;;;7.38;1.05;;;;;;;7.19;100.00;100566.81;4995797;28;20410;-56
2022/01/19 07:54:06;;;;;;;4.32;0.90;;;;;;;7.26;100.00;100561.09;4996557;28;20483;-56
2022/01/19 07:57:10;;;;;;;2.55;0.90;;;;;;;7.22;100.00;100573.47;4995392;28;20046;-56
2022/01/19 08:00:15;;;;;;;2.53;1.17;;;;;;;7.24;100.00;100574.59;4995889;28;20061;-57
2022/01/19 08:03:18;;;;;;;8.13;1.25;;;;;;;7.14;100.00;100570.13;4996118;28;20061;-57
2022/01/19 08:06:22;;;;;;;0.88;0.60;;;;;;;7.14;100.00;100563.78;5009306;28;20053;-57
2022/01/19 08:09:25;;;;;;;3.00;1.02;;;;;;;7.13;100.00;100551.94;5015414;28;20049;-56
2022/01/19 08:12:29;;;;;;;7.68;1.85;;;;;;;7.16;100.00;100556.59;5015692;28;20494;-57
2022/01/19 08:15:32;;;;;;;0.60;0.60;;;;;;;7.20;100.00;100557.28;5014950;28;20064;-57
2022/01/19 08:18:36;;;;;;;3.90;0.88;;;;;;;7.17;100.00;100555.38;5014483;28;20052;-57
2022/01/19 08:21:39;;;;;;;1.88;0.57;;;;;;;7.24;100.00;100557.97;5014518;28;20064;-57
2022/01/19 08:24:42;;;;;;;1.38;0.93;;;;;;;7.25;100.00;100565.09;5015064;28;20060;-57
2022/01/19 08:27:46;;;;;;;4.00;1.02;;;;;;;7.26;100.00;100563.06;5032186;28;20048;-57
2022/01/19 08:30:50;;;;;;;0.43;0.40;;;;;;;7.26;100.00;100566.63;5034737;28;20051;-57
2022/01/19 08:33:53;;;;;;;0.32;0.32;;;;;;;7.33;100.00;100565.66;5034977;28;20374;-58
2022/01/19 08:36:58;;;;;;;1.40;0.40;;;;;;;7.49;100.00;100568.41;4998273;28;20065;-59
2022/01/19 08:40:04;;;;;;;5.85;0.75;;;;;;;7.61;100.00;100568.44;4995353;28;20053;-58
2022/01/19 08:43:08;;;;;;;4.03;1.10;;;;;;;7.74;100.00;100567.72;4995393;28;20057;-58
2022/01/19 08:46:11;;;;;;;0.75;0.55;;;;;;;7.73;100.00;100566.94;4994653;28;20527;-59
2022/01/19 08:49:15;;;;;;;2.25;0.95;;;;;;;7.73;100.00;100572.50;4995163;28;20057;-59
2022/01/19 08:52:20;;;;;;;2.67;1.17;;;;;;;7.84;100.00;100577.72;4995490;28;20045;-59
2022/01/19 08:55:23;;;;;;;2.90;1.35;;;;;;;8.04;100.00;100586.63;4994705;28;20065;-59
2022/01/19 08:58:27;;;;;;;2.88;1.75;;;;;;;8.25;100.00;100581.28;4994982;28;20153;-60
2022/01/19 09:01:30;;;;;;;0.77;0.63;;;;;;;8.59;100.00;100593.75;4993801;28;20045;-59
2022/01/19 09:04:34;;;;;;;5.22;1.27;;;;;;;8.68;100.00;100597.41;4994148;28;20522;-59
2022/01/19 09:07:37;;;;;;;2.10;1.42;;;;;;;8.66;100.00;100599.09;4994394;28;20057;-59
2022/01/19 09:10:41;;;;;;;3.50;0.82;;;;;;;8.61;100.00;100603.19;4993837;28;20497;-59
2022/01/19 09:13:45;;;;;;;3.03;1.02;;;;;;;8.61;100.00;100616.28;4994492;28;20094;-58
2022/01/19 09:16:51;;;;;;;4.15;0.93;;;;;;;8.58;100.00;100620.72;5011549;28;20056;-57
2022/01/19 09:19:55;;;;;;;0.10;0.10;;;;;;;8.85;100.00;100640.53;5014207;28;20417;-57
2022/01/19 09:22:59;;;;;;;0.55;0.47;;;;;;;9.26;100.00;100658.25;5014207;28;20092;-56
2022/01/19 09:26:04;;;;;;;0.10;0.10;;;;;;;9.41;100.00;100648.22;5021415;28;20053;-56
2022/01/19 09:29:08;;;;;;;0.35;0.35;;;;;;;9.50;100.00;100671.34;5014432;28;20489;-56
2022/01/19 09:32:12;;;;;;;5.50;0.47;;;;;;;9.53;100.00;100666.91;5013981;28;20494;-56
2022/01/19 09:35:23;;;;;;;0.20;0.00;;;;;;;9.61;100.00;100657.84;5012843;28;20049;-56
2022/01/19 09:38:35;;;;;;;10.98;0.63;;;;;;;9.74;100.00;100649.47;5011817;28;20485;-56
2022/01/19 09:41:39;;;;;;;4.85;0.95;;;;;;;9.70;100.00;100671.06;5012861;28;20053;-56
2022/01/19 09:44:43;;;;;;;2.45;0.80;;;;;;;9.69;100.00;100672.28;5013216;28;20411;-55
2022/01/19 09:47:46;;;;;;;0.10;0.00;;;;;;;9.64;100.00;100675.63;5013735;28;20053;-56
2022/01/19 09:50:50;;;;;;;6.32;0.45;;;;;;;9.61;100.00;100684.88;5013346;28;20053;-55
2022/01/19 09:53:54;;;;;;;1.10;0.20;;;;;;;9.63;100.00;100688.00;5013714;28;20049;-57
2022/01/19 09:56:59;;;;;;;0.10;0.00;;;;;;;9.56;100.00;100682.66;5012027;28;20049;-56
2022/01/19 10:00:03;;;;;;;1.35;0.75;;;;;;;9.42;100.00;100694.28;5013051;28;20057;-57
2022/01/19 10:03:24;;;;;;;0.77;0.63;;;;;;;9.36;100.00;100696.81;5013345;28;20053;-57
2022/01/19 10:06:28;;;;;;;0.20;0.20;;;;;;;9.30;100.00;100698.59;5027611;28;20057;-57
2022/01/19 10:09:31;;;;;;;0.75;0.20;;;;;;;9.26;100.00;100733.28;5033007;28;20052;-57
2022/01/19 10:19:31;;;;;;;3.00;0.65;;;;;;;9.30;100.00;100714.50;5033038;28;20048;-57
2022/01/19 10:22:34;;;;;;;0.47;0.47;;;;;;;9.31;100.00;100710.50;5032973;28;20048;-57
2022/01/19 10:25:51;;;;;;;0.43;0.20;;;;;;;9.26;100.00;100722.19;5017703;28;20073;-57
2022/01/19 10:28:57;;;;;;;0.40;0.35;;;;;;;9.15;100.00;100731.63;4993171;28;20049;-57
2022/01/19 10:32:03;;;;;;;0.30;0.20;;;;;;;9.24;100.00;100760.75;4992671;28;20053;-57
2022/01/19 10:35:27;;;;;;;0.28;0.20;;;;;;;9.41;100.00;100759.41;4996473;28;20720;-57
2022/01/19 10:38:31;;;;;;;0.10;0.10;;;;;;;9.64;100.00;100750.72;5012890;28;20053;-57
2022/01/19 10:41:34;;;;;;;0.63;0.63;;;;;;;9.84;100.00;100759.59;5012803;28;20064;-57
2022/01/19 10:44:41;;;;;;;0.90;0.45;;;;;;;10.06;100.00;100737.38;5012297;28;20498;-57
2022/01/19 10:47:58;;;;;;;5.35;1.55;;;;;;;10.01;100.00;100722.03;5013080;28;20057;-57
2022/01/19 10:51:11;;;;;;;0.43;0.43;;;;;;;9.94;100.00;100741.75;5012379;28;20061;-57
2022/01/19 10:54:20;;;;;;;16.95;1.98;;;;;;;9.92;100.00;100761.69;5013005;28;20383;-57
2022/01/19 10:57:26;;;;;;;0.75;0.65;;;;;;;9.97;100.00;100779.81;4993126;28;20498;-57
2022/01/19 11:00:36;;;;;;;0.10;0.10;;;;;;;10.01;100.00;100768.53;4992869;28;20498;-56
2022/01/19 11:03:39;;;;;;;0.10;0.10;;;;;;;9.98;100.00;100759.13;4992647;28;20061;-57
2022/01/19 11:06:43;;;;;;;2.55;0.50;;;;;;;9.99;100.00;100749.53;5009398;28;20049;-57
2022/01/19 11:09:56;;;;;;;6.55;0.30;;;;;;;10.12;100.00;100744.72;5014587;28;20395;-57
2022/01/19 11:13:00;;;;;;;0.20;0.20;;;;;;;10.25;100.00;100736.31;5016465;28;20049;-57
2022/01/19 11:16:03;;;;;;;0.25;0.08;;;;;;;10.22;100.00;100732.44;5016680;28;20486;-57
2022/01/19 11:19:07;;;;;;;1.38;0.38;;;;;;;10.32;100.00;100725.72;5016741;28;20057;-57
2022/01/19 11:22:23;;;;;;;0.30;0.30;;;;;;;10.26;100.00;100729.53;5016721;28;20497;-56
2022/01/19 11:25:41;;;;;;;10.25;0.65;;;;;;;10.18;100.00;100729.00;5016156;28;20053;-57
2022/01/19 11:28:49;;;;;;;2.33;0.43;;;;;;;10.19;100.00;100736.13;4996940;28;20403;-57
2022/01/19 11:31:55;;;;;;;2.75;0.63;;;;;;;10.15;100.00;100752.19;4996602;28;20053;-57
2022/01/19 11:34:58;;;;;;;0.63;0.47;;;;;;;10.27;100.00;100736.66;4998291;28;20065;-57
2022/01/19 11:38:32;;;;;;;0.10;0.10;;;;;;;10.24;100.00;100751.50;5016092;28;20045;-57
2022/01/19 11:41:44;;;;;;;0.20;0.20;;;;;;;10.27;100.00;100743.00;5015972;28;20044;-57
2022/01/19 11:44:47;;;;;;;1.25;0.35;;;;;;;10.26;100.00;100741.47;5015712;28;20053;-57
2022/01/19 11:48:11;;;;;;;0.93;0.63;;;;;;;10.30;100.00;100753.25;5016107;28;20072;-57
2022/01/19 11:51:30;;;;;;;0.20;0.20;;;;;;;10.46;100.00;100741.91;5015907;28;20052;-57
2022/01/19 11:54:34;;;;;;;0.10;0.05;;;;;;;10.40;100.00;100743.72;5016142;28;20041;-57
2022/01/19 11:57:39;;;;;;;0.38;0.30;;;;;;;10.39;100.00;100738.63;5015232;28;20057;-57
2022/01/19 12:00:48;;;;;;;1.40;0.60;;;;;;;10.38;100.00;100732.25;5015859;28;20064;-58
2022/01/19 12:03:52;;;;;;;2.10;0.32;;;;;;;10.34;100.00;100753.91;5015864;28;20407;-57
2022/01/19 12:06:55;;;;;;;1.42;0.85;;;;;;;10.42;100.00;100759.97;5015680;28;20422;-57
2022/01/19 12:09:59;;;;;;;5.78;0.38;;;;;;;10.38;100.00;100753.75;5015597;28;20052;-57
2022/01/19 12:16:54;;;;;;;0.40;0.40;;;;;;;10.68;100.00;100751.03;5015881;28;20052;-57
2022/01/19 12:20:01;;;;;;;0.10;0.00;;;;;;;10.88;100.00;100749.91;5015254;28;20061;-57
2022/01/19 12:23:30;;;;;;;1.05;0.43;;;;;;;10.90;100.00;100747.44;5015255;28;20193;-57
2022/01/19 12:26:50;;;;;;;0.25;0.25;;;;;;;10.90;100.00;100758.59;5021964;28;20068;-57
2022/01/19 12:30:09;;;;;;;0.30;0.20;;;;;;;10.80;100.00;100757.00;5035122;28;20494;-57
2022/01/19 12:33:12;;;;;;;0.10;0.00;;;;;;;10.70;100.00;100747.78;5034924;28;20052;-57
2022/01/19 12:36:49;;;;;;;1.30;0.28;;;;;;;10.70;100.00;100764.50;5010002;28;20054;-57
2022/01/19 12:39:55;;;;;;;0.55;0.35;;;;;;;10.89;100.00;100771.00;4994914;28;20483;-57
2022/01/19 12:43:02;;;;;;;1.05;0.77;;;;;;;11.04;100.00;100767.22;4995284;28;20054;-57
2022/01/19 12:46:08;;;;;;;1.80;0.52;;;;;;;11.11;100.00;100782.88;4995098;28;20053;-57
2022/01/19 12:49:30;;;;;;;0.20;0.10;;;;;;;11.08;100.00;100772.63;4995309;28;20053;-57
2022/01/19 12:52:42;;;;;;;0.10;0.10;;;;;;;11.23;100.00;100774.44;4995135;28;20061;-57
2022/01/19 12:55:55;;;;;;;6.03;0.73;;;;;;;11.21;100.00;100781.69;4994904;28;20049;-57
2022/01/19 12:59:03;;;;;;;0.68;0.15;;;;;;;11.30;100.00;100778.94;4994907;28;20438;-57
2022/01/19 13:02:06;;;;;;;0.10;0.10;;;;;;;11.22;100.00;100778.44;4994781;28;20049;-57
2022/01/19 13:05:14;;;;;;;1.17;0.17;;;;;;;11.10;100.00;100784.91;4995188;28;20069;-58
2022/01/19 13:08:35;;;;;;;9.02;0.63;;;;;;;11.13;100.00;100788.78;4993630;28;20061;-58
2022/01/19 13:11:45;;;;;;;0.32;0.32;;;;;;;11.14;100.00;100798.69;4993906;28;20442;-58
2022/01/19 13:14:55;;;;;;;0.10;0.10;;;;;;;11.10;100.00;100792.47;4994641;28;20045;-58
2022/01/19 13:17:59;;;;;;;2.22;0.40;;;;;;;11.05;100.00;100798.63;4993554;28;20399;-58
2022/01/19 13:21:14;;;;;;;0.68;0.30;;;;;;;11.06;100.00;100791.84;4992814;28;20065;-58
2022/01/19 13:24:26;;;;;;;0.10;0.10;;;;;;;11.08;100.00;100784.56;4992560;28;20391;-57
2022/01/19 13:27:31;;;;;;;10.93;0.60;;;;;;;11.03;100.00;100798.31;5022615;28;20053;-57
2022/01/19 13:30:36;;;;;;;6.22;0.30;;;;;;;11.03;100.00;100792.72;5032876;28;20041;-58
2022/01/19 13:33:40;;;;;;;5.50;0.38;;;;;;;11.04;100.00;100794.31;5033427;28;20061;-57
2022/01/19 13:36:44;;;;;;;6.82;0.55;;;;;;;11.01;100.00;100784.06;5017420;28;20064;-58
2022/01/19 13:40:16;;;;;;;0.10;0.00;;;;;;;11.02;100.00;100780.81;5014030;28;20056;-57
2022/01/19 13:43:20;;;;;;;0.10;0.00;;;;;;;10.95;100.00;100769.16;5013723;28;20522;-58
2022/01/19 13:46:28;;;;;;;13.60;0.45;;;;;;;10.82;100.00;100782.38;5013639;28;20398;-58
2022/01/19 13:49:32;;;;;;;0.20;0.20;;;;;;;10.71;100.00;100776.44;5013744;28;20049;-58
2022/01/19 13:52:36;;;;;;;10.00;0.95;;;;;;;10.61;100.00;100801.44;5013858;28;20057;-57
2022/01/19 13:55:41;;;;;;;2.63;0.10;;;;;;;10.60;100.00;100804.69;5013412;28;20133;-58
2022/01/19 13:58:48;;;;;;;5.25;1.08;;;;;;;10.57;100.00;100794.44;5013983;28;20069;-58
2022/01/19 14:02:03;;;;;;;0.75;0.28;;;;;;;10.71;100.00;100798.72;5013240;28;20072;-57
2022/01/19 14:05:07;;;;;;;0.90;0.63;;;;;;;10.80;100.00;100810.72;5013417;28;20048;-57
2022/01/19 14:08:11;;;;;;;12.63;1.08;;;;;;;10.90;100.00;100822.69;5013621;28;20451;-58
2022/01/19 14:11:25;;;;;;;7.28;1.05;;;;;;;10.97;100.00;100834.38;5012822;28;20050;-54
2022/01/19 14:14:34;;;;;;;12.02;0.63;;;;;;;10.92;100.00;100836.94;5013214;28;20053;-54
2022/01/19 14:17:40;;;;;;;1.20;0.38;;;;;;;10.87;100.00;100840.34;4993446;28;20046;-57
2022/01/19 14:20:43;;;;;;;0.40;0.40;;;;;;;10.75;100.00;100821.66;4993765;28;20057;-56
2022/01/19 14:23:58;;;;;;;8.77;0.25;;;;;;;10.56;100.00;100829.88;4993677;28;20054;-56
2022/01/19 14:27:02;;;;;;;1.85;1.15;;;;;;;10.44;100.00;100830.69;5019628;28;20053;-57
2022/01/19 14:30:27;;;;;;;0.20;0.20;;;;;;;10.27;100.00;100829.31;5013005;28;20128;-57
2022/01/19 14:33:32;;;;;;;5.00;0.40;;;;;;;10.07;100.00;100822.44;5013041;28;20065;-57
2022/01/19 14:36:35;;;;;;;0.20;0.10;;;;;;;10.00;100.00;100825.44;5012610;28;20052;-57
2022/01/19 14:39:57;;;;;;;0.10;0.10;;;;;;;9.95;100.00;100835.13;5012891;28;20510;-57
2022/01/19 14:43:01;;;;;;;0.52;0.52;;;;;;;9.84;100.00;100841.03;5012854;28;20073;-57
2022/01/19 14:46:10;;;;;;;1.60;0.10;;;;;;;9.74;100.00;100849.75;5012487;28;20094;-57
2022/01/19 14:49:13;;;;;;;1.85;1.33;;;;;;;9.62;100.00;100864.41;5011761;28;20048;-57
2022/01/19 14:52:16;;;;;;;6.38;0.65;;;;;;;9.53;100.00;100873.41;5013210;28;20045;-57
2022/01/19 14:55:31;;;;;;;0.30;0.20;;;;;;;9.57;100.00;100870.53;5012940;28;20048;-57
2022/01/19 14:58:35;;;;;;;0.10;0.03;;;;;;;9.70;100.00;100874.09;5013066;28;20049;-57
2022/01/19 15:01:41;;;;;;;2.10;1.13;;;;;;;9.73;100.00;100881.53;5012577;28;20057;-57
2022/01/19 15:04:45;;;;;;;6.13;1.30;;;;;;;9.82;100.00;100890.00;5012177;28;20053;-57
2022/01/19 15:07:48;;;;;;;12.63;1.75;;;;;;;9.87;100.00;100881.88;5012776;28;20502;-57
2022/01/19 15:10:52;;;;;;;9.63;1.08;;;;;;;9.87;100.00;100869.97;5012970;28;20415;-57
2022/01/19 15:13:55;;;;;;;1.02;0.45;;;;;;;9.85;100.00;100878.75;5012817;28;20048;-57
2022/01/19 15:16:58;;;;;;;0.10;0.05;;;;;;;9.74;100.00;100874.78;5012714;28;20045;-57
2022/01/19 15:20:04;;;;;;;0.57;0.43;;;;;;;9.59;100.00;100876.44;5012847;28;20426;-58
2022/01/19 15:23:08;;;;;;;0.43;0.43;;;;;;;9.48;100.00;100881.53;5012900;28;20052;-58
2022/01/19 15:26:12;;;;;;;0.30;0.10;;;;;;;9.36;100.00;100879.50;5016573;28;20056;-58
2022/01/19 15:29:15;;;;;;;2.60;0.57;;;;;;;9.25;100.00;100879.06;5032359;28;20505;-58
2022/01/19 15:32:19;;;;;;;0.10;0.10;;;;;;;9.09;100.00;100900.13;5031125;28;20493;-59
2022/01/19 15:35:23;;;;;;;2.47;0.50;;;;;;;9.01;100.00;100903.53;5021340;28;20075;-58
2022/01/19 15:38:26;;;;;;;15.18;1.05;;;;;;;8.99;100.00;100906.75;4992674;28;20505;-58
2022/01/19 15:41:30;;;;;;;0.30;0.20;;;;;;;8.95;100.00;100910.84;4992718;28;20057;-58
2022/01/19 15:44:33;;;;;;;14.10;0.40;;;;;;;8.84;100.00;100913.91;4998916;28;20068;-59
2022/01/19 15:47:38;;;;;;;7.97;1.00;;;;;;;8.77;100.00;100911.31;4992616;28;20482;-58
2022/01/19 15:50:47;;;;;;;0.45;0.40;;;;;;;8.72;100.00;100920.22;4992915;28;20053;-58
2022/01/19 15:53:53;;;;;;;2.47;0.25;;;;;;;8.69;100.00;100915.50;4992331;28;20062;-58
2022/01/19 15:56:56;;;;;;;10.38;1.33;;;;;;;8.71;100.00;100918.63;5013660;28;20486;-58